createdAt,value
2022-11-05T00:02:18.433Z,9.63
2022-11-05T00:05:22.708Z,8.15
2022-11-05T00:08:26.632Z,9.68
2022-11-05T00:11:17.917Z,9.43
2022-11-05T00:14:22.486Z,9.23
2022-11-05T00:17:07.935Z,9.57
2022-11-05T00:19:53.493Z,9.38
2022-11-05T00:22:58.002Z,9.50
2022-11-05T00:25:43.460Z,8.80
2022-11-05T00:28:30.475Z,9.45
2022-11-05T00:31:16.048Z,9.50
2022-11-05T00:34:01.329Z,9.40
2022-11-05T00:36:46.949Z,10.45
2022-11-05T00:39:32.324Z,8.73
2022-11-05T00:42:36.354Z,9.23
2022-11-05T00:45:21.949Z,9.45
2022-11-05T00:48:25.774Z,8.50
2022-11-05T00:51:11.226Z,7.80
2022-11-05T00:53:56.856Z,8.30
2022-11-05T00:56:42.237Z,8.10
2022-11-05T00:59:27.724Z,7.93
2022-11-05T01:02:13.341Z,6.95
2022-11-05T01:04:58.717Z,7.95
2022-11-05T01:07:44.761Z,7.88
2022-11-05T01:10:30.562Z,7.22
2022-11-05T01:13:28.872Z,8.27
2022-11-05T01:16:14.392Z,7.40
2022-11-05T01:19:01.591Z,7.55
2022-11-05T01:21:47.349Z,7.22
2022-11-05T01:24:32.596Z,8.10
2022-11-05T01:27:18.269Z,7.20
2022-11-05T01:30:06.596Z,6.78
2022-11-05T01:32:51.773Z,6.70
2022-11-05T01:35:39.245Z,8.45
2022-11-05T01:38:24.762Z,7.30
2022-11-05T01:41:10.427Z,6.32
2022-11-05T01:43:59.303Z,7.22
2022-11-05T01:46:46.714Z,6.30
2022-11-05T01:49:34.131Z,5.53
2022-11-05T01:52:21.158Z,6.35
2022-11-05T01:55:09.539Z,5.90
2022-11-05T01:57:57.011Z,5.72
2022-11-05T02:00:43.208Z,6.40
2022-11-05T02:03:29.410Z,6.20
2022-11-05T02:06:16.692Z,5.72
2022-11-05T02:09:07.325Z,5.43
2022-11-05T02:11:53.003Z,4.88
2022-11-05T02:14:38.622Z,4.75
2022-11-05T02:17:42.866Z,4.35
2022-11-05T02:20:50.959Z,4.03
2022-11-05T02:23:52.521Z,4.32
2022-11-05T02:27:02.668Z,4.53
2022-11-05T02:30:04.940Z,3.97
2022-11-05T02:32:59.763Z,3.83
2022-11-05T02:35:45.257Z,4.78
2022-11-05T02:38:42.466Z,3.47
2022-11-05T02:41:39.948Z,3.05
2022-11-05T02:44:57.228Z,3.53
2022-11-05T02:47:51.956Z,4.22
2022-11-05T02:50:50.782Z,3.33
2022-11-05T02:53:42.521Z,3.65
2022-11-05T02:56:33.922Z,3.55
2022-11-05T02:59:19.657Z,3.28
2022-11-05T03:02:05.755Z,3.50
2022-11-05T03:04:51.460Z,4.47
2022-11-05T03:07:56.141Z,2.85
2022-11-05T03:10:56.634Z,3.10
2022-11-05T03:13:58.489Z,3.55
2022-11-05T03:17:00.135Z,3.42
2022-11-05T03:19:54.118Z,4.43
2022-11-05T03:25:30.322Z,6.38
2022-11-05T03:28:19.797Z,4.50
2022-11-05T03:31:07.667Z,4.63
2022-11-05T03:33:55.058Z,4.47
2022-11-05T03:36:45.054Z,5.00
2022-11-05T03:39:37.908Z,5.57
2022-11-05T03:42:26.913Z,4.93
2022-11-05T03:45:20.662Z,4.18
2022-11-05T03:48:10.561Z,5.03
2022-11-05T03:51:10.258Z,4.30
2022-11-05T03:53:58.369Z,4.15
2022-11-05T03:57:01.300Z,4.03
2022-11-05T03:59:49.686Z,4.43
2022-11-05T04:02:35.247Z,3.90
2022-11-05T04:05:20.849Z,4.40
2022-11-05T04:08:24.875Z,4.30
2022-11-05T04:11:30.529Z,4.32
2022-11-05T04:14:16.160Z,3.53
2022-11-05T04:17:08.669Z,4.63
2022-11-05T04:20:12.626Z,4.25
2022-11-05T04:23:22.321Z,3.63
2022-11-05T04:26:07.819Z,4.03
2022-11-05T04:29:11.916Z,4.30
2022-11-05T04:31:57.454Z,3.83
2022-11-05T04:34:42.904Z,3.85
2022-11-05T04:37:28.459Z,5.15
2022-11-05T04:40:13.992Z,3.35
2022-11-05T04:42:59.496Z,3.58
2022-11-05T04:45:45.472Z,4.28
2022-11-05T04:48:30.788Z,3.95
2022-11-05T04:51:16.343Z,3.60
2022-11-05T04:54:01.549Z,3.25
2022-11-05T04:56:47.048Z,4.05
2022-11-05T04:59:32.640Z,3.63
2022-11-05T05:02:18.083Z,3.65
2022-11-05T05:05:04.222Z,3.00
2022-11-05T05:07:49.546Z,2.50
2022-11-05T05:10:35.336Z,2.22
2022-11-05T05:13:20.553Z,2.55
2022-11-05T05:16:08.084Z,2.50
2022-11-05T05:18:54.455Z,2.45
2022-11-05T05:21:40.681Z,2.78
2022-11-05T05:24:26.167Z,2.95
2022-11-05T05:27:11.660Z,2.92
2022-11-05T05:29:58.506Z,2.85
2022-11-05T05:32:43.968Z,2.03
2022-11-05T05:35:29.279Z,2.40
2022-11-05T05:38:14.690Z,2.60
2022-11-05T05:41:00.689Z,2.70
2022-11-05T05:43:46.340Z,2.45
2022-11-05T05:46:31.783Z,2.28
2022-11-05T05:49:17.395Z,2.72
2022-11-05T05:52:03.119Z,2.50
2022-11-05T05:54:48.373Z,2.20
2022-11-05T05:57:34.865Z,2.50
2022-11-05T06:00:20.561Z,2.67
2022-11-05T06:03:06.587Z,2.45
2022-11-05T06:05:52.107Z,2.30
2022-11-05T06:08:37.519Z,2.72
2022-11-05T06:11:24.228Z,3.03
2022-11-05T06:14:11.572Z,2.60
2022-11-05T06:16:56.966Z,3.35
2022-11-05T06:19:42.122Z,2.85
2022-11-05T06:22:27.522Z,2.25
2022-11-05T06:25:13.189Z,2.47
2022-11-05T06:27:58.819Z,2.70
2022-11-05T06:30:51.042Z,2.15
2022-11-05T06:33:36.532Z,2.15
2022-11-05T06:36:21.887Z,2.10
2022-11-05T06:39:11.547Z,1.88
2022-11-05T06:42:17.331Z,2.17
2022-11-05T06:45:02.935Z,2.70
2022-11-05T06:47:48.123Z,1.90
2022-11-05T06:50:33.680Z,1.88
2022-11-05T06:53:19.248Z,2.55
2022-11-05T06:56:06.642Z,2.25
2022-11-05T06:58:52.461Z,2.00
2022-11-05T07:01:38.318Z,2.10
2022-11-05T07:04:23.763Z,1.88
2022-11-05T07:07:09.539Z,1.67
2022-11-05T07:09:55.030Z,1.90
2022-11-05T07:12:40.431Z,1.75
2022-11-05T07:15:26.174Z,1.95
2022-11-05T07:18:11.520Z,1.92
2022-11-05T07:20:58.899Z,2.30
2022-11-05T07:23:44.513Z,2.25
2022-11-05T07:26:34.386Z,2.80
2022-11-05T07:29:20.184Z,1.90
2022-11-05T07:32:05.923Z,1.75
2022-11-05T07:34:51.159Z,2.15
2022-11-05T07:37:48.232Z,2.10
2022-11-05T07:40:33.499Z,2.33
2022-11-05T07:43:19.295Z,2.28
2022-11-05T07:46:04.397Z,2.35
2022-11-05T07:48:49.916Z,2.40
2022-11-05T07:51:35.693Z,2.20
2022-11-05T07:54:21.177Z,2.53
2022-11-05T07:57:06.613Z,2.30
2022-11-05T07:59:52.333Z,2.50
2022-11-05T08:02:37.714Z,2.20
2022-11-05T08:05:23.853Z,2.08
2022-11-05T08:08:10.130Z,2.20
2022-11-05T08:11:08.657Z,1.63
2022-11-05T08:13:54.792Z,1.98
2022-11-05T08:16:40.353Z,2.05
2022-11-05T08:19:25.744Z,2.25
2022-11-05T08:22:11.369Z,1.77
2022-11-05T08:24:58.096Z,1.70
2022-11-05T08:27:46.005Z,2.25
2022-11-05T08:30:32.610Z,1.75
2022-11-05T08:33:18.430Z,1.95
2022-11-05T08:36:04.616Z,2.00
2022-11-05T08:38:50.137Z,1.75
2022-11-05T08:41:35.687Z,3.15
2022-11-05T08:44:21.319Z,3.22
2022-11-05T08:47:06.640Z,1.83
2022-11-05T08:49:52.185Z,2.95
2022-11-05T08:52:40.447Z,2.05
2022-11-05T08:55:26.533Z,1.70
2022-11-05T08:58:15.162Z,2.00
2022-11-05T09:01:04.940Z,1.80
2022-11-05T09:03:51.856Z,2.53
2022-11-05T09:06:37.428Z,3.47
2022-11-05T09:09:23.448Z,2.47
2022-11-05T09:12:13.143Z,1.80
2022-11-05T09:14:58.669Z,2.13
2022-11-05T09:17:44.202Z,1.67
2022-11-05T09:20:29.940Z,2.42
2022-11-05T09:23:15.817Z,1.90
2022-11-05T09:26:01.320Z,3.00
2022-11-05T09:28:47.114Z,2.10
2022-11-05T09:31:32.540Z,1.90
2022-11-05T09:34:18.184Z,1.88
2022-11-05T09:37:04.180Z,1.77
2022-11-05T09:39:49.749Z,2.10
2022-11-05T09:42:40.800Z,2.17
2022-11-05T09:45:28.289Z,1.60
2022-11-05T09:48:17.709Z,2.33
2022-11-05T09:51:05.090Z,2.30
2022-11-05T09:53:50.741Z,1.98
2022-11-05T09:56:40.764Z,2.00
2022-11-05T09:59:46.466Z,2.03
2022-11-05T10:02:42.115Z,2.42
2022-11-05T10:05:28.670Z,2.20
2022-11-05T10:08:39.458Z,2.35
2022-11-05T10:11:40.517Z,2.15
2022-11-05T10:14:33.646Z,2.55
2022-11-05T10:17:25.705Z,2.00
2022-11-05T10:20:39.283Z,3.25
2022-11-05T10:23:26.775Z,2.40
2022-11-05T10:26:16.026Z,2.15
2022-11-05T10:29:02.640Z,1.90
2022-11-05T10:31:48.764Z,1.95
2022-11-05T10:34:36.819Z,2.03
2022-11-05T10:37:24.316Z,2.45
2022-11-05T10:40:34.829Z,3.13
2022-11-05T10:43:47.011Z,2.47
2022-11-05T10:46:46.014Z,2.15
2022-11-05T10:49:42.742Z,1.65
2022-11-05T10:52:34.087Z,2.03
2022-11-05T10:55:34.874Z,2.28
2022-11-05T10:58:27.463Z,1.52
2022-11-05T11:01:12.893Z,1.90
2022-11-05T11:04:16.495Z,2.78
2022-11-05T11:07:02.672Z,2.40
2022-11-05T11:09:49.960Z,2.72
2022-11-05T11:12:41.096Z,2.95
2022-11-05T11:15:32.552Z,3.20
2022-11-05T11:18:26.210Z,2.95
2022-11-05T11:21:19.589Z,3.30
2022-11-05T11:24:09.518Z,2.45
2022-11-05T11:26:54.996Z,2.72
2022-11-05T11:29:48.055Z,2.72
2022-11-05T11:32:37.965Z,2.70
2022-11-05T11:35:25.418Z,3.10
2022-11-05T11:38:15.706Z,3.72
2022-11-05T11:41:26.856Z,3.17
2022-11-05T11:44:20.768Z,2.58
2022-11-05T11:47:12.978Z,3.03
2022-11-05T11:50:00.507Z,3.45
2022-11-05T11:52:46.028Z,3.13
2022-11-05T11:55:31.567Z,4.40
2022-11-05T11:58:17.092Z,3.00
2022-11-05T12:01:36.335Z,3.22
2022-11-05T12:04:43.541Z,4.68
2022-11-05T12:07:37.545Z,2.95
2022-11-05T12:10:51.831Z,3.33
2022-11-05T12:13:52.425Z,3.53
2022-11-05T12:17:10.938Z,3.42
2022-11-05T12:20:18.401Z,3.20
2022-11-05T12:23:17.801Z,3.25
2022-11-05T12:26:33.016Z,3.35
2022-11-05T12:29:32.933Z,3.75
2022-11-05T12:33:00.209Z,3.10
2022-11-05T12:35:57.465Z,4.35
2022-11-05T12:39:05.404Z,3.05
2022-11-05T12:42:02.881Z,2.88
2022-11-05T12:44:54.304Z,3.45
2022-11-05T12:48:19.243Z,3.03
2022-11-05T12:51:20.060Z,3.45
2022-11-05T12:54:20.643Z,3.83
2022-11-05T12:57:10.443Z,3.22
2022-11-05T13:00:24.925Z,3.10
2022-11-05T13:03:24.847Z,3.33
2022-11-05T13:06:15.611Z,2.95
2022-11-05T13:09:21.726Z,2.30
2022-11-05T13:12:13.263Z,3.15
2022-11-05T13:15:03.842Z,3.22
2022-11-05T13:17:55.385Z,2.53
2022-11-05T13:20:46.276Z,2.53
2022-11-05T13:23:44.252Z,1.83
2022-11-05T13:26:37.473Z,3.03
2022-11-05T13:29:34.438Z,2.30
2022-11-05T13:32:38.763Z,3.08
2022-11-05T13:35:32.542Z,3.00
2022-11-05T13:38:43.418Z,3.22
2022-11-05T13:41:31.839Z,2.80
2022-11-05T13:44:39.206Z,3.03
2022-11-05T13:48:02.545Z,3.42
2022-11-05T13:50:56.626Z,2.33
2022-11-05T13:54:16.331Z,3.63
2022-11-05T13:57:19.659Z,2.58
2022-11-05T14:00:23.268Z,2.38
2022-11-05T14:03:19.097Z,2.90
2022-11-05T14:06:10.724Z,2.83
2022-11-05T14:09:03.204Z,2.17
2022-11-05T14:11:58.145Z,2.92
2022-11-05T14:14:58.511Z,3.30
2022-11-05T14:18:06.342Z,3.55
2022-11-05T14:21:00.643Z,4.10
2022-11-05T14:23:52.028Z,1.98
2022-11-05T14:26:38.093Z,2.63
2022-11-05T14:29:24.808Z,2.85
2022-11-05T14:32:25.152Z,3.05
2022-11-05T14:35:16.896Z,2.38
2022-11-05T14:38:03.396Z,2.33
2022-11-05T14:40:49.224Z,2.25
2022-11-05T14:43:36.231Z,2.90
2022-11-05T14:46:21.751Z,3.10
2022-11-05T14:49:12.919Z,3.42
2022-11-05T14:52:00.627Z,2.92
2022-11-05T14:54:52.463Z,3.03
2022-11-05T14:57:43.771Z,3.58
2022-11-05T15:00:29.283Z,3.78
2022-11-05T15:04:05.831Z,2.70
2022-11-05T15:07:31.835Z,2.67
2022-11-05T15:10:17.699Z,2.35
2022-11-05T15:13:05.540Z,2.42
2022-11-05T15:15:51.735Z,2.40
2022-11-05T15:18:43.690Z,1.60
2022-11-05T15:21:34.613Z,2.45
2022-11-05T15:24:21.660Z,2.40
2022-11-05T15:27:13.249Z,2.45
2022-11-05T15:30:33.604Z,1.98
2022-11-05T15:33:21.849Z,2.40
2022-11-05T15:36:25.638Z,2.78
2022-11-05T15:39:30.347Z,2.70
2022-11-05T15:42:24.661Z,3.08
2022-11-05T15:45:20.390Z,2.78
2022-11-05T15:48:18.879Z,2.50
2022-11-05T15:51:04.968Z,2.15
2022-11-05T15:56:58.464Z,3.08
2022-11-05T15:59:46.516Z,2.13
2022-11-05T16:02:34.359Z,2.78
2022-11-05T16:05:20.232Z,2.00
2022-11-05T16:08:05.713Z,2.30
2022-11-05T16:10:54.905Z,2.65
2022-11-05T16:13:42.020Z,2.40
2022-11-05T16:16:34.240Z,2.72
2022-11-05T16:19:41.597Z,2.78
2022-11-05T16:22:44.454Z,2.97
2022-11-05T16:25:36.104Z,1.85
2022-11-05T16:28:29.507Z,2.15
2022-11-05T16:31:14.930Z,2.72
2022-11-05T16:34:00.622Z,1.35
2022-11-05T16:36:46.091Z,2.40
2022-11-05T16:39:32.074Z,2.00
2022-11-05T16:42:23.312Z,2.08
2022-11-05T16:45:13.143Z,2.00
2022-11-05T16:47:58.365Z,1.90
2022-11-05T16:50:44.682Z,1.65
2022-11-05T16:53:29.977Z,1.60
2022-11-05T16:56:22.137Z,1.40
2022-11-05T16:59:09.418Z,1.35
2022-11-05T17:01:56.134Z,2.47
2022-11-05T17:04:42.034Z,1.73
2022-11-05T17:07:27.433Z,1.33
2022-11-05T17:10:13.014Z,1.77
2022-11-05T17:12:58.072Z,7.10
2022-11-05T17:15:45.352Z,3.83
2022-11-05T17:18:30.778Z,1.92
2022-11-05T17:21:16.178Z,2.05
2022-11-05T17:24:01.982Z,10.05
2022-11-05T17:26:47.873Z,6.57
2022-11-05T17:29:33.217Z,9.98
2022-11-05T17:32:18.776Z,8.60
2022-11-05T17:35:04.870Z,6.20
2022-11-05T17:37:50.603Z,2.72
2022-11-05T17:40:36.510Z,6.80
2022-11-05T17:43:21.644Z,1.90
2022-11-05T17:46:09.373Z,2.63
2022-11-05T17:48:54.508Z,2.70
2022-11-05T17:51:40.054Z,2.83
2022-11-05T17:54:25.708Z,1.42
2022-11-05T17:57:11.343Z,1.58
2022-11-05T17:59:56.958Z,2.33
2022-11-05T18:02:42.643Z,2.35
2022-11-05T18:05:28.363Z,2.35
2022-11-05T18:08:14.178Z,2.60
2022-11-05T18:10:59.590Z,4.13
2022-11-05T18:13:45.003Z,2.70
2022-11-05T18:16:30.577Z,2.92
2022-11-05T18:19:16.648Z,3.92
2022-11-05T18:22:02.186Z,3.50
2022-11-05T18:24:48.018Z,3.40
2022-11-05T18:27:33.927Z,3.58
2022-11-05T18:30:19.432Z,3.67
2022-11-05T18:33:05.148Z,4.25
2022-11-05T18:35:50.711Z,2.90
2022-11-05T18:38:36.232Z,2.60
2022-11-05T18:41:21.992Z,3.20
2022-11-05T18:44:07.557Z,2.97
2022-11-05T18:46:58.201Z,3.22
2022-11-05T18:49:44.128Z,3.05
2022-11-05T18:52:31.669Z,3.03
2022-11-05T18:55:17.047Z,2.90
2022-11-05T18:58:02.496Z,3.90
2022-11-05T19:00:47.900Z,3.50
2022-11-05T19:03:34.099Z,4.57
2022-11-05T19:06:20.353Z,6.40
2022-11-05T19:09:07.238Z,4.60
2022-11-05T19:11:52.405Z,6.75
2022-11-05T19:14:38.090Z,4.47
2022-11-05T19:17:23.212Z,4.47
2022-11-05T19:20:10.456Z,4.38
2022-11-05T19:22:55.749Z,4.50
2022-11-05T19:25:41.277Z,4.82
2022-11-05T19:28:28.386Z,3.65
2022-11-05T19:31:20.940Z,3.15
2022-11-05T19:34:06.611Z,4.10
2022-11-05T19:36:52.266Z,3.42
2022-11-05T19:39:41.018Z,4.25
2022-11-05T19:42:26.878Z,6.20
2022-11-05T19:48:20.010Z,5.75
2022-11-05T19:51:08.435Z,17.58
2022-11-05T19:53:55.294Z,9.93
2022-11-05T19:56:40.987Z,6.70
2022-11-05T19:59:26.910Z,7.93
2022-11-05T20:02:16.301Z,7.82
2022-11-05T20:05:02.626Z,9.82
2022-11-05T20:07:52.764Z,10.80
2022-11-05T20:10:38.811Z,11.35
2022-11-05T20:13:24.666Z,12.77
2022-11-05T20:16:21.986Z,11.35
2022-11-05T20:19:13.730Z,11.38
2022-11-05T20:22:00.725Z,9.60
2022-11-05T20:24:46.236Z,9.32
2022-11-05T20:27:31.818Z,7.05
2022-11-05T20:30:18.770Z,5.68
2022-11-05T20:33:04.472Z,4.90
2022-11-05T20:35:50.415Z,4.32
2022-11-05T20:38:35.792Z,6.00
2022-11-05T20:41:21.775Z,5.50
2022-11-05T20:44:07.492Z,6.15
2022-11-05T20:46:53.191Z,5.65
2022-11-05T20:49:38.696Z,5.63
2022-11-05T20:52:24.318Z,6.93
2022-11-05T20:55:09.820Z,10.38
2022-11-05T20:57:55.025Z,8.70
2022-11-05T21:00:47.915Z,7.10
2022-11-05T21:03:34.366Z,6.72
2022-11-05T21:06:19.920Z,7.05
2022-11-05T21:09:06.135Z,8.65
2022-11-05T21:12:10.151Z,8.27
2022-11-05T21:14:56.017Z,6.93
2022-11-05T21:17:41.294Z,8.63
2022-11-05T21:20:27.147Z,6.88
2022-11-05T21:23:13.182Z,7.65
2022-11-05T21:25:58.818Z,7.22
2022-11-05T21:28:44.320Z,10.23
2022-11-05T21:31:29.725Z,11.00
2022-11-05T21:34:16.697Z,11.23
2022-11-05T21:37:02.100Z,7.90
2022-11-05T21:39:47.584Z,8.30
2022-11-05T21:42:33.222Z,7.20
2022-11-05T21:45:18.861Z,7.07
2022-11-05T21:48:04.654Z,5.93
2022-11-05T21:51:11.863Z,6.20
2022-11-05T21:54:16.836Z,4.47
2022-11-05T21:57:21.487Z,4.05
2022-11-05T22:00:09.748Z,4.65
2022-11-05T22:02:55.473Z,4.00
2022-11-05T22:05:40.892Z,5.03
2022-11-05T22:08:27.266Z,4.57
2022-11-05T22:11:12.924Z,5.07
2022-11-05T22:13:58.502Z,3.85
2022-11-05T22:16:44.141Z,3.22
2022-11-05T22:19:30.666Z,4.07
2022-11-05T22:22:16.537Z,3.65
2022-11-05T22:25:01.842Z,3.15
2022-11-05T22:27:47.569Z,3.42
2022-11-05T22:30:34.648Z,2.88
2022-11-05T22:33:20.210Z,2.38
2022-11-05T22:36:05.976Z,2.88
2022-11-05T22:38:51.680Z,2.60
2022-11-05T22:41:37.370Z,2.80
2022-11-05T22:44:24.819Z,3.00
2022-11-05T22:47:10.300Z,3.28
2022-11-05T22:49:55.616Z,3.22
2022-11-05T22:52:41.157Z,3.17
2022-11-05T22:55:26.571Z,2.83
2022-11-05T22:58:12.231Z,3.15
2022-11-05T23:00:58.497Z,3.22
2022-11-05T23:03:45.804Z,3.08
2022-11-05T23:06:51.764Z,4.18
2022-11-05T23:09:56.850Z,4.07
2022-11-05T23:12:43.670Z,4.13
2022-11-05T23:15:47.970Z,3.67
2022-11-05T23:18:51.914Z,3.40
2022-11-05T23:21:55.979Z,2.03
2022-11-05T23:24:48.317Z,2.88
2022-11-05T23:27:36.823Z,1.23
2022-11-05T23:30:25.478Z,1.25
2022-11-05T23:33:11.005Z,0.73
2022-11-05T23:36:15.051Z,0.70
2022-11-05T23:39:00.403Z,0.60
2022-11-05T23:42:04.289Z,0.70
2022-11-05T23:45:11.723Z,0.85
2022-11-05T23:48:17.444Z,1.08
2022-11-05T23:51:11.181Z,0.93
2022-11-05T23:56:41.773Z,1.17
2022-11-05T23:59:27.238Z,1.15
